Etusivu
METAR-TAF:

METAR-TAF

Lentoasemat :

Jacksonville Municipal Airport

Jacksonville, Illinois, Yhdysvallat

Leveyspiiri: 39-46-27N, Pituuspiiri: 090-14-19W, korkeus merenpinnasta: 190 m

Tämänhetkinen sää

Tämä raportti tehtiin 22 minuuttia sitten, kello 20.35 UTC
Tuuli 11 kn pohjoisen/luoteesta puuskistuen 22 kn:hen
Lämpötila 0°C
Kosteus 69%
Ilmanpaine 1021 hPa
Näkyvyys: 16.1 km
Hajanaisia pilviä 3400 ft:n korkeudessa
Hajonneita pilviä 4100 ft:n korkeudessa
Pilvistä 4700 ft:n korkeudessa

METAR: KIJX 262035Z AUTO 33011G22KT 10SM SCT034 BKN041 OVC047 00/M05 A3014 RMK AO2 T00001049

Aika: 14:57 (20:57 UTC)


TAF: puuttuu

Säähavainnot ja -ennusteet yli 4000 lentoasemalta (METAR- ja TAF-raportit).

Käytössä olevat sääasemat on merkitty karttaan keltaisilla ja punaisilla pisteillä.

Aseta hiiri pisteen päälle nähdäksesi sääaseman nimen.

Klikkaa sitten nähdäksesi säähavainnot ja -ennusteet.

Kartan vaihtaminen: klikkaa mustalla rastilla varustettuja vihreitä pisteitä, niin voit zoomata sisään; viivalla varustettua vihreää pistettä, niin voit zoomata ulos tai vihreitä nuolia, niin pääset viereisille kartoille.


METAR-TAF: